Time;durP1;ratioP1;P1;durP2;ratioP2;P2;SDS_P1;SDS_P2;PMS_P1;PMS_P2;Temp;Humidity;BMP_temperature;BMP_pressure;BME280_temperature;BME280_humidity;BME280_pressure;Samples;Min_cycle;Max_cycle;Signal;HPM_P1;HPM_P2
2022/11/26 00:00:45;;;;;;;0.10;0.10;;;;;;;4.88;100.00;102496.53;4979901;28;20392;-72
2022/11/26 00:03:11;;;;;;;0.10;0.10;;;;;;;5.03;100.00;102510.34;4976415;28;20037;-72
2022/11/26 00:05:37;;;;;;;0.20;0.20;;;;;;;4.95;100.00;102515.84;4976127;28;20038;-72
2022/11/26 00:08:03;;;;;;;0.10;0.10;;;;;;;5.07;100.00;102512.88;4940075;28;20041;-72
2022/11/26 00:10:33;;;;;;;0.20;0.20;;;;;;;5.03;100.00;102519.19;4985596;28;20577;-72
2022/11/26 00:12:59;;;;;;;0.20;0.20;;;;;;;5.03;100.00;102516.53;4958099;28;20572;-72
2022/11/26 00:15:26;;;;;;;0.10;0.10;;;;;;;4.88;100.00;102495.66;4970237;28;20034;-72
2022/11/26 00:17:52;;;;;;;0.10;0.10;;;;;;;5.22;100.00;102535.53;4968709;28;20061;-72
2022/11/26 00:20:19;;;;;;;0.20;0.20;;;;;;;5.13;100.00;102540.25;4970497;28;20105;-71
2022/11/26 00:22:50;;;;;;;0.10;0.10;;;;;;;5.18;100.00;102532.97;4967266;28;20481;-72
2022/11/26 00:25:21;;;;;;;0.20;0.20;;;;;;;5.20;100.00;102533.81;4948242;28;20030;-69
2022/11/26 00:27:47;;;;;;;0.13;0.13;;;;;;;5.28;100.00;102542.47;4959637;28;20112;-70
2022/11/26 00:30:19;;;;;;;0.10;0.10;;;;;;;5.28;100.00;102536.28;4961109;28;20503;-70
2022/11/26 00:32:44;;;;;;;0.20;0.20;;;;;;;5.12;100.00;102510.06;4974028;28;20026;-71
2022/11/26 00:35:10;;;;;;;0.20;0.20;;;;;;;5.13;100.00;102525.13;4958613;28;20034;-71
2022/11/26 00:37:42;;;;;;;0.20;0.20;;;;;;;5.21;100.00;102539.09;4962192;28;20356;-71
2022/11/26 00:40:29;;;;;;;0.20;0.20;;;;;;;5.09;100.00;102539.44;4963412;28;20117;-71
2022/11/26 00:42:54;;;;;;;0.10;0.10;;;;;;;4.94;100.00;102511.44;4967705;28;20038;-71
2022/11/26 00:45:22;;;;;;;0.20;0.20;;;;;;;5.07;100.00;102538.59;4962554;28;20057;-71
2022/11/26 00:47:48;;;;;;;0.20;0.20;;;;;;;4.93;100.00;102531.00;4969830;28;20073;-70
2022/11/26 00:50:16;;;;;;;0.20;0.20;;;;;;;4.89;100.00;102529.34;4951119;28;20038;-71
2022/11/26 00:52:42;;;;;;;0.20;0.20;;;;;;;4.76;100.00;102511.03;4964451;28;20403;-71
2022/11/26 00:55:46;;;;;;;0.10;0.10;;;;;;;4.82;100.00;102541.91;4948754;28;20030;-71
2022/11/26 00:58:20;;;;;;;0.20;0.20;;;;;;;4.73;100.00;102511.09;4982719;28;20165;-71
2022/11/26 01:00:45;;;;;;;0.20;0.20;;;;;;;4.69;100.00;102516.56;4988659;28;20030;-71
2022/11/26 01:03:10;;;;;;;0.10;0.10;;;;;;;4.76;100.00;102520.81;4955625;28;20084;-71
2022/11/26 01:05:36;;;;;;;0.20;0.20;;;;;;;4.85;100.00;102546.31;4948758;28;20042;-71
2022/11/26 01:08:15;;;;;;;0.10;0.10;;;;;;;4.64;100.00;102530.84;4968378;28;20455;-71
2022/11/26 01:10:40;;;;;;;0.20;0.20;;;;;;;4.58;100.00;102533.66;4962491;28;20073;-71
2022/11/26 01:13:08;;;;;;;0.20;0.20;;;;;;;4.49;100.00;102528.59;4965070;28;20038;-71
2022/11/26 01:15:34;;;;;;;0.10;0.10;;;;;;;4.53;100.00;102538.22;4971321;28;20037;-71
2022/11/26 01:17:59;;;;;;;0.20;0.20;;;;;;;4.50;100.00;102551.63;4989005;28;20035;-71
2022/11/26 01:20:27;;;;;;;0.10;0.10;;;;;;;4.46;100.00;102555.28;4965130;28;20058;-71
2022/11/26 01:22:54;;;;;;;0.10;0.10;;;;;;;4.38;100.00;102558.09;4966031;28;20023;-71
2022/11/26 01:25:20;;;;;;;0.20;0.20;;;;;;;4.22;100.00;102546.09;4961099;28;20049;-71
2022/11/26 01:27:45;;;;;;;0.20;0.20;;;;;;;4.27;100.00;102558.34;4960788;28;20429;-71
2022/11/26 01:30:23;;;;;;;0.10;0.10;;;;;;;4.14;100.00;102556.91;4966541;28;20038;-71
2022/11/26 01:32:48;;;;;;;0.20;0.20;;;;;;;4.24;100.00;102558.41;4978203;28;20049;-71
2022/11/26 01:35:15;;;;;;;0.15;0.15;;;;;;;4.24;100.00;102563.72;4966922;28;20053;-71
2022/11/26 01:37:42;;;;;;;0.10;0.10;;;;;;;4.13;100.00;102561.31;4984426;28;20034;-71
2022/11/26 01:40:45;;;;;;;0.20;0.20;;;;;;;4.27;100.00;102563.66;4984751;28;20034;-71
2022/11/26 01:43:16;;;;;;;0.10;0.10;;;;;;;4.09;100.00;102533.09;4961416;28;20054;-71
2022/11/26 01:45:41;;;;;;;0.20;0.20;;;;;;;4.12;100.00;102561.38;4970229;28;20034;-71
2022/11/26 01:48:26;;;;;;;0.20;0.20;;;;;;;3.97;100.00;102546.66;4970953;28;20030;-71
2022/11/26 01:50:58;;;;;;;0.20;0.20;;;;;;;4.10;100.00;102568.50;4967597;28;20034;-71
2022/11/26 01:53:34;;;;;;;0.20;0.20;;;;;;;4.16;100.00;102566.56;4980707;28;20033;-71
2022/11/26 01:56:05;;;;;;;0.15;0.15;;;;;;;4.00;100.00;102534.16;4984101;28;20117;-71
2022/11/26 01:58:33;;;;;;;0.10;0.10;;;;;;;4.22;100.00;102572.66;4966051;28;20146;-71
2022/11/26 02:00:59;;;;;;;0.20;0.20;;;;;;;4.04;100.00;102564.22;4982800;28;20404;-71
2022/11/26 02:03:26;;;;;;;0.10;0.10;;;;;;;4.12;100.00;102564.91;4966123;28;20058;-71
2022/11/26 02:06:03;;;;;;;0.20;0.20;;;;;;;4.10;100.00;102571.16;4964997;28;20022;-71
2022/11/26 02:08:30;;;;;;;0.17;0.17;;;;;;;4.09;100.00;102572.06;4962099;28;20339;-71
2022/11/26 02:10:56;;;;;;;0.10;0.10;;;;;;;3.99;100.00;102555.47;4967942;28;20030;-71
2022/11/26 02:13:21;;;;;;;0.20;0.20;;;;;;;4.20;100.00;102572.72;4977361;28;20038;-70
2022/11/26 02:16:17;;;;;;;0.20;0.20;;;;;;;4.08;100.00;102562.34;4968218;28;20033;-71
2022/11/26 02:18:49;;;;;;;0.20;0.20;;;;;;;4.02;100.00;102572.22;4975896;28;20058;-71
2022/11/26 02:21:20;;;;;;;0.17;0.17;;;;;;;3.91;100.00;102568.94;4986048;28;20279;-71
2022/11/26 02:24:20;;;;;;;0.10;0.10;;;;;;;4.00;100.00;102584.66;4957381;28;20049;-71
2022/11/26 02:27:13;;;;;;;0.20;0.20;;;;;;;4.07;100.00;102581.88;4958515;28;20038;-71
2022/11/26 02:29:38;;;;;;;0.20;0.20;;;;;;;3.99;100.00;102590.03;4959806;28;20427;-71
2022/11/26 02:32:11;;;;;;;0.20;0.20;;;;;;;3.93;100.00;102575.09;4981136;28;20042;-71
2022/11/26 02:34:53;;;;;;;0.20;0.20;;;;;;;3.96;100.00;102582.09;4961951;28;20274;-71
2022/11/26 02:37:28;;;;;;;0.20;0.20;;;;;;;3.85;100.00;102574.38;4984940;28;20537;-71
2022/11/26 02:39:55;;;;;;;0.20;0.20;;;;;;;3.97;100.00;102595.38;4957408;28;20492;-71
2022/11/26 02:42:30;;;;;;;0.20;0.20;;;;;;;3.80;100.00;102593.09;4980854;28;20417;-71
2022/11/26 02:45:07;;;;;;;0.17;0.17;;;;;;;3.85;100.00;102591.19;4969110;28;20300;-70
2022/11/26 02:47:33;;;;;;;0.20;0.20;;;;;;;3.90;100.00;102586.66;4957026;28;20068;-70
2022/11/26 02:50:01;;;;;;;0.20;0.20;;;;;;;3.77;100.00;102571.00;4957274;28;20271;-70
2022/11/26 02:52:27;;;;;;;0.20;0.20;;;;;;;4.04;100.00;102604.94;4955931;28;20449;-70
2022/11/26 02:54:54;;;;;;;0.20;0.20;;;;;;;3.93;100.00;102599.00;4957243;28;20030;-71
2022/11/26 02:57:20;;;;;;;0.10;0.10;;;;;;;3.82;100.00;102575.31;4958048;28;20483;-70
2022/11/26 02:59:46;;;;;;;0.20;0.20;;;;;;;3.97;100.00;102582.09;4972439;28;20391;-70
2022/11/26 03:02:27;;;;;;;0.20;0.20;;;;;;;3.70;100.00;102587.09;4956817;28;20362;-70
2022/11/26 03:04:55;;;;;;;0.20;0.20;;;;;;;3.87;100.00;102613.28;4954831;28;20026;-70
2022/11/26 03:07:20;;;;;;;0.20;0.20;;;;;;;3.91;100.00;102611.47;4958644;28;20463;-70
2022/11/26 03:09:54;;;;;;;0.20;0.20;;;;;;;3.84;100.00;102604.50;4974144;28;20022;-70
2022/11/26 03:12:20;;;;;;;0.20;0.20;;;;;;;3.71;100.00;102579.97;4978803;28;20064;-70
2022/11/26 03:14:45;;;;;;;0.15;0.15;;;;;;;3.95;100.00;102622.88;4956637;28;20346;-70
2022/11/26 03:17:10;;;;;;;0.20;0.20;;;;;;;4.03;100.00;102619.16;4977398;28;20030;-70
2022/11/26 03:19:36;;;;;;;0.20;0.20;;;;;;;3.93;100.00;102627.34;4979390;28;20037;-70
2022/11/26 03:22:01;;;;;;;0.20;0.20;;;;;;;3.71;100.00;102598.56;4978388;28;20549;-70
2022/11/26 03:24:26;;;;;;;0.20;0.20;;;;;;;3.77;100.00;102616.16;4973982;28;21206;-70
2022/11/26 03:26:52;;;;;;;0.13;0.13;;;;;;;3.90;100.00;102628.31;4955419;28;20035;-70
2022/11/26 03:29:17;;;;;;;0.20;0.20;;;;;;;3.72;100.00;102595.03;4972831;28;20057;-70
2022/11/26 03:31:42;;;;;;;0.10;0.10;;;;;;;3.93;100.00;102633.56;4956576;28;20370;-70
2022/11/26 03:34:08;;;;;;;0.20;0.20;;;;;;;3.74;100.00;102622.44;4957874;28;20039;-70
2022/11/26 03:36:33;;;;;;;0.20;0.20;;;;;;;3.75;100.00;102635.66;4943354;28;20034;-71
2022/11/26 03:38:58;;;;;;;0.20;0.20;;;;;;;3.53;100.00;102602.47;4942807;28;20033;-70
2022/11/26 03:41:24;;;;;;;0.20;0.20;;;;;;;3.69;100.00;102637.59;4959644;28;20397;-70
2022/11/26 03:43:49;;;;;;;0.30;0.30;;;;;;;3.43;100.00;102608.00;4961445;28;20061;-70
2022/11/26 03:46:14;;;;;;;0.20;0.20;;;;;;;3.66;100.00;102632.31;4942685;28;20066;-70
2022/11/26 03:48:40;;;;;;;0.20;0.20;;;;;;;3.69;100.00;102622.53;4953950;28;20034;-70
2022/11/26 03:51:05;;;;;;;0.20;0.20;;;;;;;3.78;100.00;102649.81;4962613;28;20497;-70
2022/11/26 03:53:31;;;;;;;0.20;0.20;;;;;;;3.89;100.00;102651.34;4958323;28;20153;-70
2022/11/26 03:55:56;;;;;;;0.20;0.20;;;;;;;3.83;100.00;102643.50;4953638;28;20394;-70
2022/11/26 03:58:21;;;;;;;0.20;0.20;;;;;;;3.57;100.00;102620.09;4955962;28;20422;-71
2022/11/26 04:00:46;;;;;;;0.30;0.30;;;;;;;4.02;100.00;102641.31;4957249;28;20022;-70
2022/11/26 04:03:12;;;;;;;0.10;0.10;;;;;;;3.80;100.00;102637.38;4954750;28;20073;-70
2022/11/26 04:05:37;;;;;;;0.20;0.20;;;;;;;3.66;100.00;102632.31;4954515;28;20026;-70
2022/11/26 04:08:02;;;;;;;0.30;0.30;;;;;;;3.67;100.00;102624.34;4957486;28;20027;-70
2022/11/26 04:10:28;;;;;;;0.13;0.13;;;;;;;3.79;100.00;102628.53;4939974;28;20121;-70
2022/11/26 04:12:53;;;;;;;0.20;0.20;;;;;;;3.69;100.00;102632.28;4955622;28;20373;-70
2022/11/26 04:15:18;;;;;;;0.17;0.17;;;;;;;3.70;100.00;102649.97;4939603;28;20026;-70
2022/11/26 04:17:44;;;;;;;0.20;0.20;;;;;;;3.55;100.00;102628.13;4956755;28;20469;-70
2022/11/26 04:20:09;;;;;;;0.20;0.20;;;;;;;3.69;100.00;102634.94;4957592;28;20125;-70
2022/11/26 04:22:35;;;;;;;0.20;0.20;;;;;;;3.63;100.00;102637.69;4973872;28;20038;-70
2022/11/26 04:25:00;;;;;;;0.20;0.20;;;;;;;3.71;100.00;102659.69;4939478;28;20045;-71
2022/11/26 04:27:25;;;;;;;0.20;0.20;;;;;;;3.60;100.00;102651.94;4956578;28;21463;-70
2022/11/26 04:29:50;;;;;;;0.20;0.20;;;;;;;3.64;100.00;102668.66;4939677;28;20448;-70
2022/11/26 04:32:16;;;;;;;0.10;0.10;;;;;;;3.55;100.00;102664.41;4956934;28;20037;-70
2022/11/26 04:34:41;;;;;;;0.10;0.10;;;;;;;3.56;100.00;102668.81;4956596;28;20042;-71
2022/11/26 04:37:06;;;;;;;0.20;0.20;;;;;;;3.55;100.00;102680.34;4977235;28;20169;-71
2022/11/26 04:39:32;;;;;;;0.20;0.20;;;;;;;3.48;100.00;102676.03;4951996;28;20401;-70
2022/11/26 04:41:57;;;;;;;0.17;0.17;;;;;;;3.48;100.00;102678.69;4956617;28;20041;-70
2022/11/26 04:44:22;;;;;;;0.20;0.20;;;;;;;3.56;100.00;102679.44;4976729;28;20484;-70
2022/11/26 04:46:48;;;;;;;0.20;0.20;;;;;;;3.59;100.00;102684.72;4957035;28;20030;-70
2022/11/26 04:49:13;;;;;;;0.20;0.20;;;;;;;3.56;100.00;102676.78;4974592;28;20039;-70
2022/11/26 04:51:38;;;;;;;0.30;0.30;;;;;;;3.57;100.00;102667.91;4954456;28;20113;-70
2022/11/26 04:54:04;;;;;;;0.20;0.20;;;;;;;3.55;100.00;102694.53;4940268;28;20030;-70
2022/11/26 04:56:29;;;;;;;0.22;0.22;;;;;;;3.45;100.00;102677.00;4974300;28;21960;-70
2022/11/26 04:58:54;;;;;;;0.20;0.20;;;;;;;3.26;100.00;102642.81;4969783;28;20029;-70
2022/11/26 05:01:20;;;;;;;0.22;0.22;;;;;;;3.45;100.00;102682.31;4939100;28;20052;-70
2022/11/26 05:03:45;;;;;;;0.20;0.20;;;;;;;3.45;100.00;102687.63;4942740;28;20361;-70
2022/11/26 05:06:10;;;;;;;0.20;0.20;;;;;;;3.56;100.00;102684.75;4957560;28;20034;-70
2022/11/26 05:08:36;;;;;;;0.30;0.30;;;;;;;3.57;100.00;102675.88;4975829;28;20164;-70
2022/11/26 05:11:02;;;;;;;0.20;0.20;;;;;;;3.33;100.00;102670.13;4960112;28;20026;-70
2022/11/26 05:13:27;;;;;;;0.20;0.20;;;;;;;3.38;100.00;102678.00;4971077;28;20544;-70
2022/11/26 05:15:52;;;;;;;0.20;0.20;;;;;;;3.28;100.00;102670.22;4941547;28;20069;-70
2022/11/26 05:18:18;;;;;;;0.20;0.20;;;;;;;3.54;100.00;102691.88;4959829;28;20030;-70
2022/11/26 05:20:43;;;;;;;0.20;0.20;;;;;;;3.29;100.00;102669.31;4966186;28;20030;-70
2022/11/26 05:23:09;;;;;;;0.20;0.20;;;;;;;3.52;100.00;102696.34;4941946;28;20034;-70
2022/11/26 05:25:34;;;;;;;0.22;0.22;;;;;;;3.32;100.00;102680.75;4958584;28;20041;-70
2022/11/26 05:27:59;;;;;;;0.20;0.20;;;;;;;3.44;100.00;102691.16;4977781;28;20566;-70
2022/11/26 05:30:25;;;;;;;0.20;0.20;;;;;;;3.40;100.00;102698.34;4959845;28;20054;-70
2022/11/26 05:32:50;;;;;;;0.22;0.22;;;;;;;3.30;100.00;102694.06;4974259;28;20054;-70
2022/11/26 05:35:15;;;;;;;0.20;0.20;;;;;;;3.29;100.00;102693.22;4975898;28;20445;-70
2022/11/26 05:37:41;;;;;;;0.20;0.20;;;;;;;3.41;100.00;102705.41;4958716;28;20022;-70
2022/11/26 05:40:07;;;;;;;0.20;0.20;;;;;;;3.18;100.00;102695.16;4941904;28;20157;-70
2022/11/26 05:42:33;;;;;;;0.13;0.13;;;;;;;3.31;100.00;102714.41;4960947;28;20555;-70
2022/11/26 05:44:58;;;;;;;0.20;0.20;;;;;;;3.43;100.00;102703.59;4959216;28;20045;-70
2022/11/26 05:47:23;;;;;;;0.20;0.20;;;;;;;3.24;100.00;102691.50;4976741;28;20030;-70
2022/11/26 05:49:48;;;;;;;0.20;0.20;;;;;;;3.34;100.00;102708.16;4954850;28;20551;-70
2022/11/26 05:52:14;;;;;;;0.30;0.30;;;;;;;3.16;100.00;102707.59;4962362;28;20066;-70
2022/11/26 05:54:39;;;;;;;0.20;0.20;;;;;;;2.94;100.00;102707.94;4975159;28;20030;-70
2022/11/26 05:57:04;;;;;;;0.20;0.20;;;;;;;2.89;100.00;102701.81;4977126;28;20030;-70
2022/11/26 05:59:30;;;;;;;0.10;0.10;;;;;;;3.02;100.00;102720.22;4975166;28;20037;-70
2022/11/26 06:01:55;;;;;;;0.10;0.10;;;;;;;3.07;100.00;102715.69;4972170;28;20037;-70
2022/11/26 06:04:20;;;;;;;0.20;0.20;;;;;;;2.94;100.00;102710.59;4957495;28;20033;-70
2022/11/26 06:06:46;;;;;;;0.22;0.22;;;;;;;2.98;100.00;102722.91;4979530;28;20069;-70
2022/11/26 06:09:11;;;;;;;0.30;0.30;;;;;;;3.03;100.00;102727.28;4979245;28;20373;-70
2022/11/26 06:11:37;;;;;;;0.20;0.20;;;;;;;2.99;100.00;102732.63;4978586;28;20533;-70
2022/11/26 06:14:02;;;;;;;0.17;0.17;;;;;;;2.99;100.00;102737.03;4976767;28;20030;-70
2022/11/26 06:16:27;;;;;;;0.20;0.20;;;;;;;3.02;100.00;102736.13;4973053;28;20085;-70
2022/11/26 06:18:53;;;;;;;0.20;0.20;;;;;;;2.89;100.00;102744.28;4965138;28;20026;-70
2022/11/26 06:21:18;;;;;;;0.25;0.25;;;;;;;2.92;100.00;102743.34;4984814;28;20486;-69
2022/11/26 06:23:43;;;;;;;0.20;0.20;;;;;;;2.84;100.00;102739.03;4977234;28;20030;-70
2022/11/26 06:26:10;;;;;;;0.20;0.20;;;;;;;2.91;100.00;102749.56;4946280;28;20107;-70
2022/11/26 06:28:35;;;;;;;0.20;0.20;;;;;;;2.71;100.00;102737.44;4984935;28;20488;-70
2022/11/26 06:31:02;;;;;;;0.20;0.20;;;;;;;2.53;100.00;102699.69;4958300;28;20053;-70
2022/11/26 06:33:28;;;;;;;0.30;0.30;;;;;;;2.80;100.00;102750.59;4974014;28;20069;-70
2022/11/26 06:36:00;;;;;;;0.20;0.20;;;;;;;2.87;100.00;102754.03;4982738;28;20465;-70
2022/11/26 06:38:25;;;;;;;0.20;0.20;;;;;;;2.72;100.00;102744.50;4979729;28;20038;-70
2022/11/26 06:41:00;;;;;;;0.28;0.28;;;;;;;3.00;100.00;102771.53;4970871;28;20531;-71
2022/11/26 06:43:26;;;;;;;0.30;0.30;;;;;;;2.85;100.00;102766.44;4961913;28;20033;-70
2022/11/26 06:45:51;;;;;;;0.30;0.30;;;;;;;2.91;100.00;102771.66;4960062;28;20027;-70
2022/11/26 06:48:16;;;;;;;0.20;0.20;;;;;;;2.90;100.00;102775.22;4961714;28;20038;-70
2022/11/26 06:50:42;;;;;;;0.28;0.28;;;;;;;2.73;100.00;102764.84;4959124;28;20347;-70
2022/11/26 06:53:07;;;;;;;0.25;0.25;;;;;;;2.79;100.00;102780.69;4940082;28;20038;-70
2022/11/26 06:55:32;;;;;;;0.20;0.20;;;;;;;2.67;100.00;102771.13;4973088;28;20463;-70
2022/11/26 06:57:58;;;;;;;0.25;0.25;;;;;;;2.80;100.00;102785.09;4979277;28;20023;-70
2022/11/26 07:00:23;;;;;;;0.20;0.20;;;;;;;2.81;100.00;102780.63;4975444;28;20026;-70
2022/11/26 07:02:48;;;;;;;0.20;0.20;;;;;;;2.73;100.00;102791.38;4975831;28;20112;-70
2022/11/26 07:05:13;;;;;;;0.30;0.30;;;;;;;2.60;100.00;102745.56;4963538;28;20065;-70
2022/11/26 07:07:39;;;;;;;0.20;0.20;;;;;;;2.79;100.00;102772.72;4963048;28;20030;-70
2022/11/26 07:10:05;;;;;;;0.20;0.20;;;;;;;2.77;100.00;102769.22;4973866;28;20081;-70
2022/11/26 07:12:30;;;;;;;0.30;0.30;;;;;;;2.75;100.00;102781.63;4974423;28;20342;-70
2022/11/26 07:14:55;;;;;;;0.32;0.32;;;;;;;2.75;100.00;102778.09;4974979;28;20101;-69
2022/11/26 07:17:21;;;;;;;0.30;0.30;;;;;;;2.57;100.00;102760.66;4959926;28;20138;-70
2022/11/26 07:19:46;;;;;;;0.20;0.20;;;;;;;2.66;100.00;102781.72;4959341;28;20385;-70
2022/11/26 07:22:11;;;;;;;0.20;0.20;;;;;;;2.61;100.00;102788.88;4974804;28;20432;-70
2022/11/26 07:24:37;;;;;;;0.30;0.30;;;;;;;2.79;100.00;102775.38;4973267;28;20116;-70
2022/11/26 07:27:02;;;;;;;0.25;0.25;;;;;;;2.70;100.00;102792.28;4974404;28;20026;-70
2022/11/26 07:29:27;;;;;;;0.30;0.30;;;;;;;3.01;100.00;102793.63;4940322;28;20599;-70
2022/11/26 07:31:53;;;;;;;0.30;0.30;;;;;;;3.07;100.00;102806.81;4973010;28;20747;-70
2022/11/26 07:34:18;;;;;;;0.20;0.20;;;;;;;3.08;100.00;102805.91;4972080;28;20026;-70
2022/11/26 07:36:44;;;;;;;0.30;0.30;;;;;;;3.00;100.00;102816.66;4968740;28;20706;-70
2022/11/26 07:39:10;;;;;;;0.22;0.22;;;;;;;2.96;100.00;102812.28;4967829;28;20153;-70
2022/11/26 07:41:36;;;;;;;0.20;0.20;;;;;;;3.00;100.00;102819.31;4931202;28;20065;-70
2022/11/26 07:44:02;;;;;;;0.20;0.20;;;;;;;2.87;100.00;102812.41;4972203;28;20130;-70
2022/11/26 07:46:27;;;;;;;0.20;0.20;;;;;;;3.03;100.00;102804.25;4978349;28;20105;-70
2022/11/26 07:48:54;;;;;;;0.20;0.20;;;;;;;2.99;100.00;102819.31;4981953;28;20157;-70
2022/11/26 07:51:20;;;;;;;0.30;0.30;;;;;;;3.03;100.00;102812.19;4958995;28;20026;-70
2022/11/26 07:53:46;;;;;;;0.20;0.20;;;;;;;2.96;100.00;102816.69;4971284;28;20077;-70
2022/11/26 07:56:12;;;;;;;0.20;0.20;;;;;;;3.12;100.00;102807.63;4971878;28;20181;-70
2022/11/26 07:58:37;;;;;;;0.20;0.20;;;;;;;3.10;100.00;102813.84;4961587;28;20789;-70
2022/11/26 08:01:10;;;;;;;0.20;0.20;;;;;;;3.36;100.00;102824.09;4965285;28;20033;-71
2022/11/26 08:03:40;;;;;;;0.30;0.30;;;;;;;3.34;100.00;102819.69;4964493;28;20488;-70
2022/11/26 08:06:07;;;;;;;0.20;0.20;;;;;;;3.27;100.00;102781.75;4971098;28;20280;-71
2022/11/26 08:08:34;;;;;;;0.30;0.30;;;;;;;3.34;100.00;102815.25;4973476;28;20027;-70
2022/11/26 08:10:59;;;;;;;0.20;0.20;;;;;;;3.43;100.00;102812.47;4955634;28;20057;-70
2022/11/26 08:13:24;;;;;;;0.32;0.32;;;;;;;3.42;100.00;102802.75;4973104;28;20600;-70
2022/11/26 08:15:50;;;;;;;0.30;0.30;;;;;;;3.60;100.00;102793.56;4972030;28;20058;-71
2022/11/26 08:18:15;;;;;;;0.20;0.20;;;;;;;3.70;100.00;102794.31;4954212;28;20030;-71
2022/11/26 08:20:40;;;;;;;0.20;0.20;;;;;;;3.93;100.00;102800.09;4974084;28;20038;-69
2022/11/26 08:23:06;;;;;;;0.30;0.30;;;;;;;3.83;100.00;102805.59;4969493;28;20043;-70
2022/11/26 08:25:31;;;;;;;0.30;0.30;;;;;;;3.85;100.00;102802.91;4956041;28;20144;-71
2022/11/26 08:27:56;;;;;;;0.20;0.20;;;;;;;3.95;100.00;102807.16;4974104;28;20030;-71
2022/11/26 08:30:21;;;;;;;0.30;0.30;;;;;;;4.14;100.00;102799.69;4951368;28;20034;-71
2022/11/26 08:32:47;;;;;;;0.30;0.30;;;;;;;4.36;100.00;102804.63;4973323;28;20026;-73
2022/11/26 08:35:12;;;;;;;0.20;0.20;;;;;;;4.46;100.00;102821.25;4975036;28;20042;-71
2022/11/26 08:37:37;;;;;;;0.30;0.30;;;;;;;4.71;100.00;102823.41;4976343;28;20031;-71
2022/11/26 08:40:04;;;;;;;0.30;0.30;;;;;;;4.82;100.00;102824.03;4953256;28;20105;-71
2022/11/26 08:42:29;;;;;;;0.30;0.30;;;;;;;4.88;100.00;102807.94;4956790;28;20038;-71
2022/11/26 08:44:55;;;;;;;0.22;0.22;;;;;;;5.05;100.00;102828.88;4971361;28;20109;-68
2022/11/26 08:47:20;;;;;;;0.30;0.30;;;;;;;5.01;100.00;102818.34;4975477;28;20124;-71
2022/11/26 08:49:48;;;;;;;0.25;0.25;;;;;;;4.97;100.00;102833.47;4975186;28;20440;-70
2022/11/26 08:52:13;;;;;;;0.28;0.28;;;;;;;5.04;100.00;102808.47;4973675;28;20062;-71
2022/11/26 08:54:39;;;;;;;0.30;0.30;;;;;;;5.14;100.00;102825.13;4977241;28;20152;-71
2022/11/26 08:57:04;;;;;;;0.20;0.20;;;;;;;5.08;100.00;102827.91;4975010;28;20022;-68
2022/11/26 08:59:29;;;;;;;0.30;0.30;;;;;;;5.15;100.00;102829.53;4971138;28;20027;-69
2022/11/26 09:01:55;;;;;;;0.30;0.30;;;;;;;5.30;100.00;102846.09;4972087;28;20053;-69
2022/11/26 09:04:20;;;;;;;0.20;0.20;;;;;;;5.48;100.00;102832.31;4974810;28;20042;-70
2022/11/26 09:06:45;;;;;;;0.20;0.20;;;;;;;5.28;100.00;102827.44;4978753;28;20100;-70
2022/11/26 09:09:11;;;;;;;0.20;0.20;;;;;;;5.29;100.00;102818.56;4979031;28;20041;-70
2022/11/26 09:11:46;;;;;;;0.20;0.20;;;;;;;5.39;100.00;102840.50;4978329;28;20061;-70
2022/11/26 09:14:12;;;;;;;0.20;0.20;;;;;;;5.36;100.00;102832.59;4968728;28;20130;-70
2022/11/26 09:16:38;;;;;;;0.17;0.17;;;;;;;5.46;100.00;102838.56;4969662;28;21015;-70
2022/11/26 09:19:05;;;;;;;0.20;0.20;;;;;;;5.53;100.00;102835.75;4960797;28;20033;-69
2022/11/26 09:21:31;;;;;;;0.22;0.22;;;;;;;5.46;100.00;102819.91;4977473;28;20030;-69
2022/11/26 09:23:56;;;;;;;0.20;0.20;;;;;;;5.67;100.00;102847.84;4973299;28;20030;-69
2022/11/26 09:26:22;;;;;;;0.30;0.30;;;;;;;5.67;100.00;102845.16;4976888;28;20060;-69
2022/11/26 09:28:48;;;;;;;0.30;0.30;;;;;;;5.35;100.00;102826.41;4972750;28;20034;-69
2022/11/26 09:31:13;;;;;;;0.20;0.20;;;;;;;5.65;100.00;102853.22;4978662;28;20037;-70
2022/11/26 09:33:38;;;;;;;0.22;0.22;;;;;;;5.62;100.00;102845.28;4966120;28;20653;-70
2022/11/26 09:36:09;;;;;;;0.20;0.20;;;;;;;5.54;100.00;102847.25;4979691;28;20471;-70
2022/11/26 09:38:35;;;;;;;0.20;0.20;;;;;;;5.76;100.00;102852.94;4964642;28;20027;-69
2022/11/26 09:41:44;;;;;;;0.20;0.20;;;;;;;5.73;100.00;102861.03;4970089;28;20034;-70
2022/11/26 09:44:28;;;;;;;0.20;0.20;;;;;;;5.85;100.00;102852.69;4893542;28;20125;-70
2022/11/26 09:47:03;;;;;;;0.20;0.20;;;;;;;5.80;100.00;102857.28;4976695;28;20267;-70
2022/11/26 09:49:32;;;;;;;0.10;0.10;;;;;;;5.96;100.00;102862.22;4975843;28;20437;-70
2022/11/26 09:52:01;;;;;;;0.20;0.20;;;;;;;6.20;100.00;102871.41;4946494;28;20462;-70
2022/11/26 09:54:28;;;;;;;0.20;0.20;;;;;;;6.18;100.00;102867.91;4960979;28;20041;-70
2022/11/26 09:56:58;;;;;;;0.20;0.20;;;;;;;6.25;100.00;102869.47;4958328;28;20098;-70
2022/11/26 09:59:25;;;;;;;0.30;0.30;;;;;;;6.28;100.00;102877.41;4955769;28;20030;-69
2022/11/26 10:01:50;;;;;;;0.30;0.30;;;;;;;6.24;100.00;102866.84;4961077;28;20123;-70
2022/11/26 10:04:26;;;;;;;0.30;0.30;;;;;;;6.58;100.00;102861.44;4962679;28;20030;-70
2022/11/26 10:07:13;;;;;;;0.20;0.20;;;;;;;6.40;100.00;102864.66;4970329;28;20057;-70
2022/11/26 10:09:56;;;;;;;0.15;0.15;;;;;;;6.43;100.00;102861.91;4971862;28;20034;-70
2022/11/26 10:12:29;;;;;;;0.20;0.20;;;;;;;6.49;100.00;102860.84;4959006;28;20472;-70
2022/11/26 10:15:07;;;;;;;0.20;0.20;;;;;;;6.56;100.00;102865.97;4973549;28;21721;-70
2022/11/26 10:17:49;;;;;;;0.25;0.25;;;;;;;6.44;100.00;102836.97;4961571;28;20477;-71
2022/11/26 10:20:18;;;;;;;0.20;0.20;;;;;;;6.51;100.00;102865.22;4962414;28;20041;-71
2022/11/26 10:22:59;;;;;;;0.20;0.20;;;;;;;6.40;100.00;102846.84;4962002;28;20058;-70
2022/11/26 10:25:27;;;;;;;0.20;0.20;;;;;;;6.47;100.00;102868.00;4949781;28;20180;-71
2022/11/26 10:27:54;;;;;;;0.20;0.20;;;;;;;6.67;100.00;102864.78;4968052;28;20092;-70
2022/11/26 10:30:23;;;;;;;0.20;0.20;;;;;;;6.80;100.00;102875.97;4949524;28;20034;-70
2022/11/26 10:32:50;;;;;;;0.10;0.10;;;;;;;6.77;100.00;102866.25;4962381;28;20036;-71
2022/11/26 10:35:18;;;;;;;0.20;0.20;;;;;;;6.93;100.00;102861.34;4959014;28;20038;-71
2022/11/26 10:37:44;;;;;;;0.13;0.13;;;;;;;6.81;100.00;102819.84;4959689;28;20049;-70
2022/11/26 10:40:23;;;;;;;0.20;0.20;;;;;;;6.98;100.00;102855.88;4960418;28;20758;-70
2022/11/26 10:43:01;;;;;;;0.20;0.20;;;;;;;6.68;100.00;102846.03;4976076;28;20713;-70
2022/11/26 10:45:41;;;;;;;0.20;0.20;;;;;;;6.90;100.00;102864.97;4966059;28;21207;-70
2022/11/26 10:48:33;;;;;;;0.20;0.20;;;;;;;6.77;100.00;102855.56;4985246;28;20382;-70
2022/11/26 10:51:05;;;;;;;0.10;0.10;;;;;;;6.81;100.00;102854.56;4966090;28;20037;-69
2022/11/26 10:53:35;;;;;;;0.10;0.10;;;;;;;7.04;100.00;102850.31;4982154;28;20038;-70
2022/11/26 10:56:03;;;;;;;0.10;0.10;;;;;;;7.03;100.00;102841.44;4980998;28;20536;-70
2022/11/26 10:58:38;;;;;;;0.10;0.10;;;;;;;7.04;100.00;102844.97;4966001;28;20109;-70
2022/11/26 11:01:04;;;;;;;0.20;0.20;;;;;;;7.26;100.00;102822.97;4981395;28;20424;-70
2022/11/26 11:03:35;;;;;;;0.15;0.15;;;;;;;7.36;100.00;102840.44;4976027;28;20030;-70
2022/11/26 11:06:19;;;;;;;0.20;0.20;;;;;;;7.48;100.00;102848.06;4981885;28;20042;-70
2022/11/26 11:08:49;;;;;;;0.20;0.20;;;;;;;7.70;100.00;102847.34;4976809;28;20030;-70
2022/11/26 11:11:24;;;;;;;0.20;0.20;;;;;;;7.45;100.00;102823.22;4962701;28;20291;-69
2022/11/26 11:13:49;;;;;;;0.20;0.20;;;;;;;7.57;100.00;102825.50;4949028;28;20029;-70
2022/11/26 11:16:24;;;;;;;0.20;0.20;;;;;;;8.11;100.00;102852.19;4964732;28;20381;-70
2022/11/26 11:18:54;;;;;;;0.30;0.30;;;;;;;8.58;100.00;102802.38;4984563;28;20069;-70
2022/11/26 11:21:20;;;;;;;0.25;0.25;;;;;;;9.45;100.00;102834.66;4961380;28;20065;-70
2022/11/26 11:23:45;;;;;;;0.20;0.20;;;;;;;9.82;100.00;102841.19;4964720;28;20022;-70
2022/11/26 11:26:23;;;;;;;0.17;0.17;;;;;;;9.74;100.00;102843.31;4964108;28;20041;-69
2022/11/26 11:28:51;;;;;;;0.20;0.20;;;;;;;9.96;100.00;102842.38;4973389;28;20080;-69